Time;durP1;ratioP1;P1;durP2;ratioP2;P2;SDS_P1;SDS_P2;PMS_P1;PMS_P2;Temp;Humidity;BMP_temperature;BMP_pressure;BME280_temperature;BME280_humidity;BME280_pressure;Samples;Min_cycle;Max_cycle;Signal;HPM_P1;HPM_P2
2022/04/01 00:47:45;;;;;;;3.30;2.00;;;20.60;59.00;;;;;;5012894;23;20585;-58
2022/04/01 00:50:15;;;;;;;3.28;1.85;;;20.60;59.60;;;;;;4990127;28;20403;-58
2022/04/01 00:52:46;;;;;;;4.55;1.90;;;20.60;59.10;;;;;;4994112;23;20281;-53
2022/04/01 00:55:17;;;;;;;5.75;2.25;;;20.60;59.10;;;;;;4990754;28;20280;-61
2022/04/01 00:57:48;;;;;;;4.10;1.80;;;20.60;59.10;;;;;;4986412;28;20304;-62
2022/04/01 01:00:19;;;;;;;4.10;1.83;;;20.60;59.00;;;;;;4990695;28;20280;-62
2022/04/01 01:02:52;;;;;;;5.30;2.15;;;20.60;59.00;;;;;;4990219;28;20197;-57
2022/04/01 01:05:22;;;;;;;4.00;1.92;;;20.60;59.00;;;;;;4990704;28;20292;-63
2022/04/01 01:07:53;;;;;;;4.10;2.03;;;20.60;58.90;;;;;;4990705;28;20325;-59
2022/04/01 01:10:23;;;;;;;3.83;1.50;;;20.60;58.90;;;;;;4990605;28;20280;-65
2022/04/01 01:12:54;;;;;;;3.58;1.73;;;20.60;58.90;;;;;;4990181;28;20616;-64
2022/04/01 01:15:28;;;;;;;2.95;1.73;;;20.70;58.90;;;;;;4990619;28;20292;-63
2022/04/01 01:18:00;;;;;;;3.08;1.70;;;20.60;58.80;;;;;;4994399;28;20308;-62
2022/04/01 01:20:31;;;;;;;3.03;1.63;;;20.60;58.80;;;;;;4994268;28;20288;-59
2022/04/01 01:23:01;;;;;;;3.97;1.85;;;20.70;58.80;;;;;;4997991;28;20291;-56
2022/04/01 01:25:38;;;;;;;4.18;1.75;;;20.60;58.80;;;;;;5014458;28;20200;-61
2022/04/01 01:28:09;;;;;;;2.65;1.40;;;20.70;58.80;;;;;;5003128;28;20219;-65
2022/04/01 01:30:39;;;;;;;3.13;1.70;;;20.70;58.80;;;;;;4994142;28;20280;-64
2022/04/01 01:33:10;;;;;;;3.85;1.60;;;20.70;58.70;;;;;;4993625;28;20229;-63
2022/04/01 01:35:40;;;;;;;4.53;1.70;;;20.70;58.80;;;;;;4993624;28;20571;-60
2022/04/01 01:38:11;;;;;;;2.67;1.50;;;20.70;58.70;;;;;;4993318;28;20579;-65
2022/04/01 01:40:43;;;;;;;3.53;1.60;;;20.70;58.70;;;;;;4993335;28;20198;-59
2022/04/01 01:43:13;;;;;;;3.08;1.60;;;20.70;58.70;;;;;;4993156;28;20198;-63
2022/04/01 01:45:44;;;;;;;3.72;1.88;;;20.70;58.70;;;;;;4993370;28;20637;-59
2022/04/01 01:48:18;;;;;;;3.08;1.98;;;20.70;58.70;;;;;;4993151;28;20267;-65
2022/04/01 01:56:23;;;;;;;2.50;1.60;;;20.70;58.60;;;;;;4994063;28;20200;-61
2022/04/01 01:58:54;;;;;;;5.15;2.13;;;20.70;58.60;;;;;;4993296;28;20223;-63
2022/04/01 02:01:25;;;;;;;3.90;1.60;;;20.80;58.60;;;;;;4993792;28;20292;-59
2022/04/01 02:03:56;;;;;;;3.78;1.80;;;20.70;58.60;;;;;;4993667;28;20678;-55
2022/04/01 02:06:27;;;;;;;3.75;1.90;;;20.80;58.60;;;;;;4993737;28;20244;-64
2022/04/01 02:08:58;;;;;;;2.53;1.40;;;20.80;58.60;;;;;;4993242;28;20656;-55
2022/04/01 02:11:32;;;;;;;3.03;2.00;;;20.80;58.60;;;;;;4993476;28;20201;-61
2022/04/01 02:14:02;;;;;;;4.53;1.88;;;20.80;58.60;;;;;;4993076;28;20260;-57
2022/04/01 02:16:33;;;;;;;2.75;1.70;;;20.80;58.60;;;;;;4993322;28;20197;-53
2022/04/01 02:19:03;;;;;;;3.03;1.77;;;20.80;59.20;;;;;;4992654;28;20248;-59
2022/04/01 02:21:34;;;;;;;2.72;1.60;;;20.80;58.50;;;;;;4993140;28;20201;-65
2022/04/01 02:24:10;;;;;;;2.80;1.58;;;20.80;58.50;;;;;;4993231;28;20225;-61
2022/04/01 02:26:42;;;;;;;3.05;1.55;;;20.80;58.50;;;;;;4993116;28;20201;-62
2022/04/01 02:29:13;;;;;;;3.78;1.90;;;20.80;58.50;;;;;;4991988;28;20213;-59
2022/04/01 02:31:43;;;;;;;3.10;1.67;;;20.90;58.50;;;;;;4992621;28;20193;-57
2022/04/01 02:34:14;;;;;;;3.38;1.67;;;20.90;58.50;;;;;;4990507;28;20229;-60
2022/04/01 02:36:44;;;;;;;3.08;1.40;;;20.90;58.50;;;;;;4992852;28;20661;-62
2022/04/01 02:39:15;;;;;;;3.72;1.48;;;20.90;58.50;;;;;;4992744;28;20257;-54
2022/04/01 02:41:48;;;;;;;4.00;1.85;;;20.90;58.50;;;;;;4992366;28;20706;-55
2022/04/01 02:44:18;;;;;;;3.72;1.65;;;20.90;58.50;;;;;;4992627;28;20201;-60
2022/04/01 02:46:50;;;;;;;4.53;1.90;;;20.90;58.50;;;;;;4985055;28;20197;-53
2022/04/01 02:49:21;;;;;;;3.13;1.52;;;20.90;58.50;;;;;;4992283;28;20225;-54
2022/04/01 02:51:53;;;;;;;2.90;1.63;;;20.90;58.50;;;;;;4992523;28;20686;-65
2022/04/01 02:54:23;;;;;;;3.28;1.50;;;20.90;58.50;;;;;;4986277;23;20729;-59
2022/04/01 02:56:55;;;;;;;3.72;1.63;;;20.90;58.40;;;;;;4973268;28;20725;-59
2022/04/01 02:59:26;;;;;;;2.38;1.50;;;20.90;58.40;;;;;;4956596;28;20755;-60
2022/04/01 03:01:57;;;;;;;3.20;1.63;;;21.00;58.50;;;;;;4953927;29;20213;-61
2022/04/01 03:04:27;;;;;;;3.33;1.50;;;21.00;58.60;;;;;;4954064;29;20290;-61
2022/04/01 03:06:58;;;;;;;2.83;1.60;;;21.00;58.50;;;;;;4953917;29;20201;-59
2022/04/01 03:09:28;;;;;;;4.85;1.70;;;21.00;58.50;;;;;;4953490;29;20234;-61
2022/04/01 03:12:01;;;;;;;2.63;1.50;;;20.90;58.50;;;;;;4953849;29;20199;-60
2022/04/01 03:14:31;;;;;;;2.50;1.50;;;20.90;58.50;;;;;;4953000;29;20227;-60
2022/04/01 03:17:02;;;;;;;2.83;1.90;;;20.90;58.50;;;;;;4953608;29;20631;-59
2022/04/01 03:19:32;;;;;;;3.03;1.50;;;20.90;59.00;;;;;;4953623;29;20777;-60
2022/04/01 03:22:02;;;;;;;3.03;1.45;;;21.00;58.40;;;;;;4953630;29;20194;-59
2022/04/01 03:24:33;;;;;;;4.07;1.42;;;20.90;58.40;;;;;;4953363;29;20293;-56
2022/04/01 03:27:05;;;;;;;2.22;1.38;;;20.90;58.40;;;;;;4953440;29;20662;-59
2022/04/01 03:29:36;;;;;;;2.45;1.50;;;20.90;58.40;;;;;;4952542;29;20295;-59
2022/04/01 03:32:07;;;;;;;2.35;1.50;;;20.90;58.40;;;;;;4953341;29;20206;-61
2022/04/01 03:34:38;;;;;;;3.13;1.80;;;20.90;58.40;;;;;;4953289;29;20244;-56
2022/04/01 03:37:09;;;;;;;2.75;1.38;;;20.90;58.30;;;;;;4952995;29;20195;-57
2022/04/01 03:39:40;;;;;;;3.22;1.30;;;20.90;58.30;;;;;;4951974;28;20231;-53
2022/04/01 03:42:12;;;;;;;2.63;1.30;;;20.90;58.40;;;;;;4953220;29;20300;-58
2022/04/01 03:44:44;;;;;;;3.13;1.60;;;20.90;58.40;;;;;;4953015;29;20286;-59
2022/04/01 03:47:18;;;;;;;2.03;1.30;;;20.90;58.40;;;;;;4953265;29;20191;-60
2022/04/01 03:49:52;;;;;;;2.58;1.40;;;20.90;58.40;;;;;;4953053;29;20288;-57
2022/04/01 04:00:30;;;;;;;3.50;1.50;;;20.90;58.30;;;;;;5764150;23;20239;-58
2022/04/01 04:03:11;;;;;;;4.90;1.70;;;20.80;58.30;;;;;;4990728;28;20579;-58
2022/04/01 04:05:42;;;;;;;2.28;1.50;;;20.80;58.30;;;;;;4991441;28;20224;-58
2022/04/01 04:08:12;;;;;;;3.25;1.70;;;20.80;58.30;;;;;;4991104;28;20308;-58
2022/04/01 04:10:44;;;;;;;2.75;1.73;;;20.80;58.30;;;;;;4991302;28;20285;-58
2022/04/01 04:13:16;;;;;;;3.25;1.90;;;20.80;58.30;;;;;;4991247;28;20649;-58
2022/04/01 04:15:53;;;;;;;3.42;2.17;;;20.80;58.30;;;;;;4991332;28;20207;-58
2022/04/01 04:18:29;;;;;;;4.25;2.83;;;20.80;58.30;;;;;;4991420;28;20300;-58
2022/04/01 04:21:12;;;;;;;5.38;3.47;;;20.80;58.30;;;;;;4990764;28;20204;-58
2022/04/01 04:23:48;;;;;;;5.35;3.30;;;20.80;58.30;;;;;;4990943;28;20662;-58
2022/04/01 04:26:24;;;;;;;5.50;3.75;;;20.80;58.30;;;;;;4987454;28;20276;-58
2022/04/01 04:29:04;;;;;;;4.68;3.13;;;20.80;58.40;;;;;;4989441;28;20297;-58
2022/04/01 04:31:39;;;;;;;5.07;3.40;;;20.80;58.40;;;;;;4988513;28;20273;-58
2022/04/01 04:34:13;;;;;;;5.68;3.60;;;20.80;58.40;;;;;;4988885;28;20582;-58
2022/04/01 04:36:44;;;;;;;5.68;3.72;;;20.70;58.40;;;;;;5007068;28;20193;-58
2022/04/01 04:39:29;;;;;;;4.95;3.35;;;20.70;58.40;;;;;;5006157;28;20215;-58
2022/04/01 04:42:01;;;;;;;5.50;3.88;;;20.80;58.40;;;;;;4988894;28;20217;-58
2022/04/01 04:44:31;;;;;;;5.40;3.50;;;20.70;58.40;;;;;;4989281;28;20201;-58
2022/04/01 04:47:06;;;;;;;5.40;3.78;;;20.70;58.40;;;;;;4988759;28;20285;-58
2022/04/01 04:49:38;;;;;;;6.05;3.47;;;20.70;58.40;;;;;;4988104;28;20675;-58
2022/04/01 04:52:10;;;;;;;6.07;3.67;;;20.70;58.40;;;;;;4988585;28;20197;-58
2022/04/01 04:54:43;;;;;;;4.35;3.42;;;20.70;58.40;;;;;;5026596;23;20338;-62
2022/04/01 04:57:15;;;;;;;5.25;3.60;;;20.70;58.40;;;;;;5028576;28;20692;-58
2022/04/01 04:59:47;;;;;;;6.07;3.85;;;20.70;58.40;;;;;;5026230;28;20230;-68
2022/04/01 05:02:29;;;;;;;5.43;3.08;;;20.70;58.40;;;;;;5025919;28;20280;-58
2022/04/01 05:05:06;;;;;;;5.03;3.28;;;20.70;58.40;;;;;;5028254;28;20672;-69
2022/04/01 05:08:03;;;;;;;5.97;3.58;;;20.70;58.40;;;;;;5026208;28;20755;-68
2022/04/01 05:10:44;;;;;;;5.25;3.97;;;20.70;58.40;;;;;;5027845;28;20575;-65
2022/04/01 05:13:25;;;;;;;6.40;3.92;;;20.70;58.40;;;;;;5027890;28;20204;-59
2022/04/01 05:15:56;;;;;;;4.82;3.50;;;20.70;58.40;;;;;;5027067;28;20224;-63
2022/04/01 05:18:40;;;;;;;4.25;3.40;;;20.70;58.40;;;;;;5028201;28;20299;-61
2022/04/01 05:21:18;;;;;;;5.03;3.35;;;20.70;58.40;;;;;;5028121;28;20300;-69
2022/04/01 05:23:56;;;;;;;4.88;2.95;;;20.60;58.40;;;;;;5027749;28;20650;-60
2022/04/01 05:26:38;;;;;;;4.60;3.35;;;20.60;58.40;;;;;;5027587;28;20195;-55
2022/04/01 05:29:13;;;;;;;4.50;3.50;;;20.60;58.40;;;;;;5028165;28;20238;-58
2022/04/01 05:31:53;;;;;;;6.03;3.47;;;20.60;58.40;;;;;;5027747;28;20196;-58
2022/04/01 05:34:35;;;;;;;5.32;3.03;;;20.60;58.40;;;;;;5028282;28;20578;-61
2022/04/01 05:37:07;;;;;;;4.57;3.10;;;20.60;58.40;;;;;;5027959;28;20295;-64
2022/04/01 05:39:38;;;;;;;4.05;3.08;;;20.60;58.40;;;;;;5027292;28;20271;-62
2022/04/01 05:42:09;;;;;;;5.55;3.50;;;20.60;58.40;;;;;;5028147;28;20228;-63
2022/04/01 05:44:40;;;;;;;4.63;3.20;;;20.60;58.50;;;;;;5027608;28;20215;-56
2022/04/01 05:47:13;;;;;;;5.03;3.63;;;20.60;58.40;;;;;;5028005;28;20188;-64
2022/04/01 05:49:47;;;;;;;4.40;3.38;;;20.50;58.40;;;;;;5027690;28;20311;-60
2022/04/01 05:52:17;;;;;;;6.07;3.03;;;20.60;58.50;;;;;;5028072;28;20192;-63
2022/04/01 05:54:48;;;;;;;4.07;2.80;;;20.60;58.50;;;;;;4988680;23;20232;-60
2022/04/01 05:57:21;;;;;;;4.18;2.83;;;20.60;58.50;;;;;;4969013;28;20281;-64
2022/04/01 05:59:52;;;;;;;3.92;3.10;;;20.60;58.50;;;;;;4969214;28;20617;-60
2022/04/01 06:02:45;;;;;;;4.50;3.10;;;20.60;58.50;;;;;;4969913;28;20617;-62
2022/04/01 06:05:25;;;;;;;6.45;3.15;;;20.60;58.50;;;;;;4972465;28;20281;-60
2022/04/01 06:08:04;;;;;;;3.67;2.63;;;20.60;58.50;;;;;;4972972;28;20225;-60
2022/04/01 06:10:43;;;;;;;3.75;2.85;;;20.60;58.50;;;;;;4972007;28;20197;-60
2022/04/01 06:13:24;;;;;;;3.67;2.80;;;20.60;58.50;;;;;;4972564;28;20201;-58
2022/04/01 06:16:04;;;;;;;4.68;2.55;;;20.50;58.40;;;;;;4972130;28;20222;-63
2022/04/01 06:18:44;;;;;;;4.22;2.72;;;20.60;58.50;;;;;;4972847;28;20584;-63
2022/04/01 06:21:25;;;;;;;4.05;2.80;;;20.60;58.40;;;;;;4971604;28;20209;-64
2022/04/01 06:24:09;;;;;;;3.78;2.92;;;20.50;58.40;;;;;;4964704;28;20281;-61
2022/04/01 06:26:43;;;;;;;4.38;2.70;;;20.60;58.50;;;;;;4970998;28;20194;-58
2022/04/01 06:29:28;;;;;;;3.30;2.70;;;20.50;58.40;;;;;;4969249;28;20301;-60
2022/04/01 06:32:05;;;;;;;5.22;2.78;;;20.50;58.50;;;;;;4972235;28;20198;-63
2022/04/01 06:34:56;;;;;;;3.95;2.95;;;20.50;58.40;;;;;;4971900;28;20308;-62
2022/04/01 06:37:32;;;;;;;4.00;2.88;;;20.50;58.40;;;;;;4972157;28;20198;-62
2022/04/01 06:40:07;;;;;;;4.80;2.83;;;20.50;58.40;;;;;;4934844;29;20203;-55
2022/04/01 06:42:40;;;;;;;3.80;2.80;;;20.50;58.50;;;;;;4942914;29;20190;-64
2022/04/01 06:45:13;;;;;;;3.05;2.45;;;20.50;58.50;;;;;;4954063;29;20245;-60
2022/04/01 06:47:45;;;;;;;3.30;2.50;;;20.50;58.50;;;;;;4953838;28;20218;-63
2022/04/01 06:50:16;;;;;;;3.97;2.70;;;20.50;58.50;;;;;;4953330;29;20203;-62
2022/04/01 06:55:20;;;;;;;3.65;2.72;;;20.50;58.40;;;;;;5005744;28;20247;-58
2022/04/01 06:57:50;;;;;;;4.72;2.80;;;20.50;58.50;;;;;;5011756;28;20217;-58
2022/04/01 07:00:21;;;;;;;3.85;3.30;;;20.50;58.40;;;;;;5011798;28;20619;-58
2022/04/01 07:02:51;;;;;;;4.40;2.58;;;20.50;58.40;;;;;;4985421;28;20277;-58
2022/04/01 07:05:22;;;;;;;3.45;2.60;;;20.50;58.50;;;;;;4972125;28;20281;-55
2022/04/01 07:07:53;;;;;;;5.43;3.50;;;20.50;58.50;;;;;;4972418;28;20304;-58
2022/04/01 07:10:26;;;;;;;8.73;3.15;;;20.50;58.70;;;;;;4988684;28;20202;-58
2022/04/01 07:12:56;;;;;;;4.35;3.15;;;20.40;58.70;;;;;;4991928;28;20293;-58
2022/04/01 07:15:27;;;;;;;4.38;2.97;;;20.40;58.60;;;;;;4991323;28;20243;-58
2022/04/01 07:17:58;;;;;;;3.88;2.83;;;20.40;58.60;;;;;;4991886;28;20253;-58
2022/04/01 07:20:28;;;;;;;5.15;2.97;;;20.40;58.60;;;;;;4992653;28;20205;-58
2022/04/01 07:22:59;;;;;;;4.28;3.00;;;20.40;58.60;;;;;;4991968;28;20205;-58
2022/04/01 07:25:32;;;;;;;4.43;2.97;;;20.40;58.60;;;;;;4990856;28;20208;-58
2022/04/01 07:28:02;;;;;;;6.60;3.00;;;20.40;58.60;;;;;;4991131;28;20298;-58
2022/04/01 07:30:32;;;;;;;4.47;2.95;;;20.40;58.60;;;;;;4991643;28;20419;-58
2022/04/01 07:33:03;;;;;;;5.10;3.25;;;20.40;58.60;;;;;;4991769;28;20626;-58
2022/04/01 07:35:35;;;;;;;4.25;2.67;;;20.40;58.60;;;;;;4991649;28;20312;-58
2022/04/01 07:38:05;;;;;;;4.93;2.88;;;20.40;58.60;;;;;;4991802;28;20217;-58
2022/04/01 07:40:38;;;;;;;3.88;2.75;;;20.40;58.60;;;;;;4991193;28;20198;-58
2022/04/01 07:43:09;;;;;;;4.65;2.80;;;20.40;58.60;;;;;;4991493;28;20209;-58
2022/04/01 07:45:39;;;;;;;5.38;3.25;;;20.40;58.60;;;;;;4991490;28;20256;-58
2022/04/01 07:48:10;;;;;;;4.22;2.75;;;20.40;58.60;;;;;;4991264;28;20308;-58
2022/04/01 07:50:41;;;;;;;4.13;2.80;;;20.40;58.60;;;;;;4990811;28;20288;-58
2022/04/01 07:55:55;;;;;;;5.03;2.95;;;20.30;58.50;;;;;;5770300;23;20598;-64
2022/04/01 07:58:36;;;;;;;3.97;2.72;;;20.40;58.60;;;;;;5009770;28;20217;-52
2022/04/01 08:01:19;;;;;;;3.92;2.90;;;20.30;58.50;;;;;;5009764;28;20197;-60
2022/04/01 08:04:00;;;;;;;3.83;2.65;;;20.30;58.50;;;;;;5010703;28;20527;-53
2022/04/01 08:06:38;;;;;;;3.72;2.40;;;20.30;58.50;;;;;;5011427;28;20216;-66
2022/04/01 08:09:18;;;;;;;5.43;3.00;;;20.30;58.50;;;;;;5011245;28;20707;-63
2022/04/01 08:12:00;;;;;;;4.28;2.80;;;20.30;58.70;;;;;;5011336;28;20648;-64
2022/04/01 08:14:37;;;;;;;3.85;2.78;;;20.30;58.70;;;;;;5010919;28;20521;-51
2022/04/01 08:17:15;;;;;;;5.00;2.70;;;20.30;58.70;;;;;;5010481;28;20196;-53
2022/04/01 08:19:49;;;;;;;3.50;2.30;;;20.30;58.70;;;;;;5010997;28;20613;-52
2022/04/01 08:22:23;;;;;;;3.88;2.70;;;20.30;58.70;;;;;;5010677;28;20582;-60
2022/04/01 08:24:57;;;;;;;5.47;2.88;;;20.30;58.70;;;;;;5009147;28;20820;-59
2022/04/01 08:27:36;;;;;;;4.05;2.63;;;20.30;58.70;;;;;;5010054;28;20562;-56
2022/04/01 08:30:07;;;;;;;3.30;2.42;;;20.30;58.70;;;;;;5018637;23;20617;-63
2022/04/01 08:32:37;;;;;;;5.30;2.78;;;20.30;58.70;;;;;;4971178;28;20296;-62
2022/04/01 08:35:11;;;;;;;2.97;2.38;;;20.30;58.80;;;;;;4971122;28;20229;-64
2022/04/01 08:37:41;;;;;;;3.08;2.50;;;20.30;58.80;;;;;;4975040;28;20227;-62
2022/04/01 08:40:12;;;;;;;4.57;2.80;;;20.30;58.80;;;;;;4988454;28;20288;-64
2022/04/01 08:42:49;;;;;;;3.80;2.70;;;20.30;58.80;;;;;;5007974;28;20247;-61
2022/04/01 08:45:20;;;;;;;4.22;2.63;;;20.30;58.80;;;;;;5008841;28;20287;-65
2022/04/01 08:47:52;;;;;;;4.25;2.53;;;20.30;58.80;;;;;;4989917;28;20312;-58
2022/04/01 08:50:22;;;;;;;5.03;2.72;;;20.20;58.70;;;;;;4989236;28;20204;-65
2022/04/01 08:52:52;;;;;;;4.00;2.30;;;20.20;58.70;;;;;;5008363;28;20196;-65
2022/04/01 08:55:23;;;;;;;4.43;2.30;;;20.20;58.70;;;;;;5007592;28;20303;-64
2022/04/01 08:57:55;;;;;;;3.55;2.25;;;20.20;58.70;;;;;;5008400;28;20226;-64
2022/04/01 09:00:39;;;;;;;3.95;2.53;;;20.20;58.80;;;;;;5007379;28;20275;-64
2022/04/01 09:03:11;;;;;;;4.60;2.72;;;20.20;58.70;;;;;;5008631;28;20699;-62
2022/04/01 09:05:47;;;;;;;3.10;2.30;;;20.20;58.70;;;;;;5008108;28;20197;-65
2022/04/01 09:08:17;;;;;;;5.25;2.53;;;20.20;58.70;;;;;;5006235;28;20725;-62
2022/04/01 09:10:56;;;;;;;4.10;2.55;;;20.20;58.70;;;;;;4989555;28;20202;-60
2022/04/01 09:13:30;;;;;;;2.72;2.03;;;20.10;58.60;;;;;;5003407;28;20666;-59
2022/04/01 09:16:01;;;;;;;3.33;2.42;;;20.20;58.70;;;;;;4988320;28;20225;-62
2022/04/01 09:18:44;;;;;;;3.50;2.83;;;20.10;58.70;;;;;;4988453;28;20244;-65
2022/04/01 09:21:16;;;;;;;3.35;2.47;;;20.10;58.70;;;;;;5007716;28;20719;-64
2022/04/01 09:23:50;;;;;;;3.33;2.45;;;20.10;58.70;;;;;;5006880;28;20680;-60
2022/04/01 09:26:23;;;;;;;3.22;2.33;;;20.10;58.60;;;;;;5008229;28;20272;-58
2022/04/01 09:28:56;;;;;;;3.97;2.50;;;20.10;58.60;;;;;;5007888;28;20547;-58
2022/04/01 09:31:27;;;;;;;4.82;2.70;;;20.10;58.60;;;;;;5006411;28;20200;-58
2022/04/01 09:33:57;;;;;;;3.15;2.20;;;20.10;58.60;;;;;;5007515;28;20280;-64
2022/04/01 09:36:33;;;;;;;3.30;2.15;;;20.10;58.60;;;;;;5008003;28;20224;-63
2022/04/01 09:39:06;;;;;;;3.50;2.45;;;20.10;58.60;;;;;;5010257;28;20270;-63
2022/04/01 09:41:39;;;;;;;2.92;2.10;;;20.10;59.20;;;;;;4992609;28;20190;-56
2022/04/01 09:44:15;;;;;;;4.05;2.53;;;20.10;58.70;;;;;;4992990;28;20200;-60
2022/04/01 09:46:47;;;;;;;4.25;2.40;;;20.10;58.70;;;;;;4991932;28;20259;-61
2022/04/01 09:49:30;;;;;;;4.13;2.33;;;20.10;58.70;;;;;;4991715;28;20643;-53
2022/04/01 09:52:01;;;;;;;3.10;2.08;;;20.10;58.70;;;;;;5010635;28;20292;-63
2022/04/01 09:54:31;;;;;;;3.67;2.53;;;20.00;58.60;;;;;;5011366;28;20292;-63
2022/04/01 09:57:02;;;;;;;3.05;2.00;;;20.00;58.60;;;;;;5011723;28;20224;-64
2022/04/01 09:59:35;;;;;;;3.05;2.22;;;20.00;58.60;;;;;;5011440;28;20212;-58
2022/04/01 10:02:05;;;;;;;3.53;2.25;;;20.00;58.60;;;;;;5011696;28;20281;-60
2022/04/01 10:04:36;;;;;;;3.33;2.28;;;20.00;58.60;;;;;;5011794;28;20724;-56
2022/04/01 10:07:07;;;;;;;3.65;2.55;;;20.00;58.60;;;;;;5011452;28;20234;-63
2022/04/01 10:09:39;;;;;;;4.03;2.28;;;20.00;58.70;;;;;;5011445;28;20607;-60
2022/04/01 10:12:13;;;;;;;3.47;2.03;;;20.00;58.60;;;;;;5011734;28;20228;-57
2022/04/01 10:14:46;;;;;;;3.65;2.47;;;20.00;58.60;;;;;;5009798;28;20288;-58
2022/04/01 10:17:18;;;;;;;4.35;2.30;;;20.00;58.60;;;;;;4990991;28;20313;-63
2022/04/01 10:19:53;;;;;;;4.00;2.05;;;20.00;58.60;;;;;;4992065;28;20230;-59
2022/04/01 10:22:24;;;;;;;2.35;1.90;;;20.00;58.60;;;;;;4991929;28;20205;-63
2022/04/01 10:25:03;;;;;;;2.90;1.90;;;20.00;58.60;;;;;;5010214;28;20283;-61
2022/04/01 10:27:40;;;;;;;3.88;2.08;;;19.90;58.50;;;;;;5010801;28;20228;-63
2022/04/01 10:30:17;;;;;;;3.15;2.10;;;20.00;58.60;;;;;;4999280;28;20275;-64
2022/04/01 10:32:48;;;;;;;2.75;2.05;;;19.90;58.50;;;;;;5011162;28;20882;-64
2022/04/01 10:35:27;;;;;;;4.45;2.20;;;20.00;58.60;;;;;;5010354;28;20296;-59
2022/04/01 10:38:16;;;;;;;3.08;1.95;;;19.90;58.60;;;;;;5010731;28;20216;-63
2022/04/01 10:40:49;;;;;;;2.60;1.90;;;19.90;58.50;;;;;;5010265;28;20193;-61
2022/04/01 10:43:21;;;;;;;3.15;2.25;;;19.90;58.50;;;;;;5010843;28;20617;-60
2022/04/01 10:46:05;;;;;;;3.25;2.13;;;19.90;58.50;;;;;;4991086;28;20197;-60
2022/04/01 10:51:42;;;;;;;2.60;2.10;;;19.90;58.50;;;;;;4993782;28;20620;-60
2022/04/01 10:54:45;;;;;;;3.60;1.73;;;19.90;58.50;;;;;;5009287;23;20735;-58
2022/04/01 10:57:27;;;;;;;3.20;1.90;;;19.90;58.50;;;;;;4992330;28;20328;-59
2022/04/01 11:00:00;;;;;;;2.63;1.88;;;19.90;58.50;;;;;;4989368;28;20272;-58
2022/04/01 11:02:33;;;;;;;2.75;2.03;;;19.90;58.60;;;;;;4992545;28;20286;-58
2022/04/01 11:05:23;;;;;;;2.40;1.92;;;19.90;58.60;;;;;;4992031;28;20701;-58
2022/04/01 11:08:20;;;;;;;2.72;2.10;;;19.90;58.60;;;;;;4992232;28;20317;-58
2022/04/01 11:11:12;;;;;;;3.13;2.13;;;19.90;58.60;;;;;;4992134;28;20224;-59
2022/04/01 11:13:43;;;;;;;3.17;2.00;;;19.80;58.50;;;;;;4992395;28;20716;-60
2022/04/01 11:16:19;;;;;;;2.53;1.70;;;19.90;58.60;;;;;;4992495;28;20266;-59
2022/04/01 11:19:25;;;;;;;2.60;2.00;;;19.80;58.60;;;;;;4992200;28;20312;-59
2022/04/01 11:21:55;;;;;;;3.45;1.92;;;19.80;58.50;;;;;;4912647;29;20200;-58
2022/04/01 11:24:41;;;;;;;3.17;2.13;;;19.80;58.50;;;;;;4992932;28;20283;-58
2022/04/01 11:27:25;;;;;;;2.92;1.85;;;19.80;58.60;;;;;;5011436;28;20283;-59
2022/04/01 11:30:12;;;;;;;3.22;2.00;;;19.80;58.60;;;;;;5012044;28;20204;-58
2022/04/01 11:32:43;;;;;;;3.47;1.77;;;19.80;58.50;;;;;;5011398;28;20648;-58
2022/04/01 11:35:17;;;;;;;2.65;1.80;;;19.70;58.50;;;;;;5001938;28;20193;-59
2022/04/01 11:37:49;;;;;;;3.83;2.20;;;19.80;58.50;;;;;;4991576;28;20663;-59
2022/04/01 11:40:22;;;;;;;2.97;1.90;;;19.70;58.50;;;;;;4991668;28;20198;-59
2022/04/01 11:42:56;;;;;;;3.03;1.98;;;19.70;58.50;;;;;;4991775;28;20594;-59
2022/04/01 11:45:28;;;;;;;3.05;1.95;;;19.70;58.50;;;;;;4991743;28;20193;-58
2022/04/01 11:47:59;;;;;;;2.72;1.75;;;19.70;58.50;;;;;;4991515;28;20301;-58
2022/04/01 11:50:31;;;;;;;2.63;1.90;;;19.70;58.50;;;;;;4991017;28;20229;-59
2022/04/01 11:55:46;;;;;;;3.40;2.00;;;19.60;58.40;;;;;;5009388;28;20302;-64
2022/04/01 11:58:16;;;;;;;2.78;1.83;;;19.70;58.90;;;;;;5011160;28;20304;-69
2022/04/01 12:00:48;;;;;;;2.42;1.70;;;19.70;58.50;;;;;;5010378;28;20627;-61
2022/04/01 12:03:20;;;;;;;3.85;1.88;;;19.70;58.50;;;;;;5011235;28;20196;-64
2022/04/01 12:08:41;;;;;;;3.33;1.77;;;19.60;58.50;;;;;;5010853;28;20201;-67
2022/04/01 12:08:45;;;;;;;3.25;2.10;;;19.60;58.50;;;;;;5010963;28;20216;-68
2022/04/01 12:11:16;;;;;;;2.92;1.73;;;19.60;58.50;;;;;;5011059;28;20197;-63
2022/04/01 12:13:53;;;;;;;2.63;1.83;;;19.60;58.50;;;;;;5008016;28;20297;-65
2022/04/01 12:16:25;;;;;;;2.33;1.60;;;19.60;58.50;;;;;;5010999;28;20217;-63
2022/04/01 12:18:55;;;;;;;2.40;1.50;;;19.60;58.50;;;;;;5010842;28;20270;-64
2022/04/01 12:21:28;;;;;;;2.85;1.70;;;19.60;58.50;;;;;;4994171;28;20229;-67
2022/04/01 12:23:58;;;;;;;2.33;1.67;;;19.60;58.50;;;;;;5002498;28;20205;-67
2022/04/01 12:26:29;;;;;;;2.45;1.75;;;19.60;58.50;;;;;;5010436;28;20205;-66
2022/04/01 12:29:02;;;;;;;2.63;1.70;;;19.50;58.40;;;;;;5010435;28;20770;-72
2022/04/01 12:31:33;;;;;;;1.95;1.58;;;19.50;58.40;;;;;;5009616;28;20232;-66
2022/04/01 12:34:03;;;;;;;2.30;1.80;;;19.50;58.40;;;;;;5010532;28;20239;-66
2022/04/01 12:36:38;;;;;;;2.17;1.73;;;19.50;58.40;;;;;;4993826;28;20232;-68
2022/04/01 12:39:10;;;;;;;3.15;1.75;;;19.50;58.40;;;;;;4990756;28;20217;-67
2022/04/01 12:41:52;;;;;;;2.13;1.50;;;19.50;58.40;;;;;;4992890;28;20189;-55
2022/04/01 12:44:27;;;;;;;2.40;1.70;;;19.50;58.40;;;;;;4990602;28;20197;-67
2022/04/01 12:46:59;;;;;;;2.65;1.60;;;19.40;58.30;;;;;;4990782;28;20668;-62
2022/04/01 12:49:33;;;;;;;2.53;1.70;;;19.40;58.30;;;;;;4990849;28;20373;-69
2022/04/01 12:52:07;;;;;;;2.88;1.80;;;19.40;58.30;;;;;;4990698;28;20201;-67
2022/04/01 12:57:22;;;;;;;2.22;1.70;;;19.40;58.30;;;;;;5165046;23;20232;-58
2022/04/01 12:59:56;;;;;;;3.63;1.80;;;19.40;58.30;;;;;;4990497;28;20587;-58
2022/04/01 13:02:28;;;;;;;2.80;1.55;;;19.40;58.40;;;;;;4987983;28;20591;-58
2022/04/01 13:04:59;;;;;;;2.58;1.50;;;19.40;58.40;;;;;;4990591;28;20249;-58
2022/04/01 13:07:35;;;;;;;2.05;1.63;;;19.40;58.40;;;;;;4989883;28;20228;-58
2022/04/01 13:10:17;;;;;;;2.85;1.83;;;19.30;58.30;;;;;;4990237;28;20280;-59
2022/04/01 13:12:49;;;;;;;2.25;1.50;;;19.30;58.30;;;;;;4992710;28;20284;-58
2022/04/01 13:15:22;;;;;;;1.80;1.67;;;19.30;58.30;;;;;;4994287;28;20201;-58
2022/04/01 13:17:53;;;;;;;3.35;1.88;;;19.30;58.30;;;;;;4993738;28;20229;-58
2022/04/01 13:20:25;;;;;;;2.47;1.50;;;19.30;58.40;;;;;;4994342;28;20208;-58
2022/04/01 13:22:59;;;;;;;2.38;1.35;;;19.30;58.40;;;;;;4994360;28;20662;-58
2022/04/01 13:25:31;;;;;;;2.40;1.45;;;19.20;58.30;;;;;;4994086;28;20288;-58
2022/04/01 13:28:02;;;;;;;2.28;1.63;;;19.20;58.30;;;;;;4994517;28;20576;-58
2022/04/01 13:30:33;;;;;;;2.60;1.70;;;19.20;58.30;;;;;;4994181;28;20292;-58
2022/04/01 13:33:03;;;;;;;2.35;1.40;;;19.30;58.30;;;;;;4993676;28;20666;-58
2022/04/01 13:35:33;;;;;;;2.72;1.77;;;19.20;58.30;;;;;;4994119;28;20201;-58
2022/04/01 13:38:06;;;;;;;3.67;1.88;;;19.20;58.30;;;;;;4993474;28;20233;-58
2022/04/01 13:40:36;;;;;;;1.95;1.40;;;19.20;58.30;;;;;;4993872;28;20716;-58
2022/04/01 13:43:07;;;;;;;2.45;1.67;;;19.20;58.30;;;;;;4993700;28;20658;-58
2022/04/01 13:45:39;;;;;;;2.78;1.30;;;19.20;58.30;;;;;;4993625;28;20205;-58
2022/04/01 13:48:11;;;;;;;2.60;1.50;;;19.20;58.30;;;;;;4993432;28;20226;-58
2022/04/01 13:50:41;;;;;;;2.08;1.45;;;19.20;58.30;;;;;;4993818;28;20202;-58
2022/04/01 14:34:46;;;;;;;1.83;1.33;;;18.90;58.10;;;;;;5080064;23;20227;-61
2022/04/01 14:37:17;;;;;;;2.08;1.33;;;18.90;58.10;;;;;;5031722;28;20215;-61
2022/04/01 14:39:48;;;;;;;2.00;1.30;;;18.90;58.10;;;;;;5032090;28;20279;-66
2022/04/01 14:42:18;;;;;;;2.30;1.58;;;18.90;58.10;;;;;;5028922;28;20279;-60
2022/04/01 14:44:48;;;;;;;2.13;1.30;;;18.90;58.20;;;;;;5031854;28;20283;-58
2022/04/01 14:47:19;;;;;;;2.63;1.40;;;18.90;58.20;;;;;;5031575;28;20592;-54
2022/04/01 14:49:51;;;;;;;2.78;1.60;;;18.80;58.20;;;;;;5031981;28;20286;-55
2022/04/01 14:52:22;;;;;;;1.98;1.23;;;18.80;58.20;;;;;;5031471;28;20192;-55
2022/04/01 14:54:52;;;;;;;2.80;1.58;;;18.80;58.20;;;;;;5031902;28;20283;-58
2022/04/01 14:57:24;;;;;;;2.63;1.23;;;18.80;58.10;;;;;;5030974;28;20235;-60
2022/04/01 14:59:56;;;;;;;2.38;1.38;;;18.80;58.20;;;;;;5031579;28;20713;-51
2022/04/01 15:02:27;;;;;;;2.00;1.38;;;18.80;58.20;;;;;;5032020;28;20192;-54
2022/04/01 15:04:59;;;;;;;1.65;1.27;;;18.80;58.20;;;;;;5032051;28;20197;-56
2022/04/01 15:07:30;;;;;;;2.97;1.60;;;18.70;58.20;;;;;;5031564;28;20220;-61
2022/04/01 15:10:00;;;;;;;1.70;1.10;;;18.70;58.10;;;;;;5031200;28;20283;-62
2022/04/01 15:12:30;;;;;;;1.88;1.27;;;18.70;58.20;;;;;;5030761;28;20852;-61
2022/04/01 15:15:01;;;;;;;1.90;1.33;;;18.70;58.10;;;;;;5031330;28;20200;-58
2022/04/01 15:17:35;;;;;;;2.20;1.50;;;18.70;58.20;;;;;;5031162;28;20718;-54